Airport View

Enter AWOS ICAO identifier for current METAR.

ex. KFNL

KRZN 192350Z AUTO 00000KT 10SM SCT015 BKN024 OVC032 00/M03 A3026 RMK AO2 T10031027 10006 21005

19 Oct 2020 23:52

Frequency: 118.325

Phone: 715-349-8563

Other Area AWOS: K04W - KUBE - KROS - KOEO

TAF KHYR 191723Z 1918/2018 24005KT P6SM OVC050 FM200100 00000KT P6SM OVC050 FM201400 13005KT P6SM SCT050 BKN090 FM201700 14007G14KT 6SM -SN BR OVC040